sensor_id;sensor_type;location;lat;lon;timestamp;temperature;humidity
31379;DHT22;61664;48.112;11.662;2022-10-19T00:01:12;18.20;74.00
31379;DHT22;61664;48.112;11.662;2022-10-19T00:03:41;18.20;74.00
31379;DHT22;61664;48.112;11.662;2022-10-19T00:09:03;18.20;73.90
31379;DHT22;61664;48.112;11.662;2022-10-19T00:11:32;18.20;73.70
31379;DHT22;61664;48.112;11.662;2022-10-19T00:14:00;18.30;73.90
31379;DHT22;61664;48.112;11.662;2022-10-19T00:16:30;18.30;73.90
31379;DHT22;61664;48.112;11.662;2022-10-19T00:19:01;18.20;73.80
31379;DHT22;61664;48.112;11.662;2022-10-19T00:21:31;18.20;73.90
31379;DHT22;61664;48.112;11.662;2022-10-19T00:23:58;18.20;73.90
31379;DHT22;61664;48.112;11.662;2022-10-19T00:26:26;18.20;74.00
31379;DHT22;61664;48.112;11.662;2022-10-19T00:28:54;18.20;74.00
31379;DHT22;61664;48.112;11.662;2022-10-19T00:31:22;18.30;74.10
31379;DHT22;61664;48.112;11.662;2022-10-19T00:33:49;18.30;74.10
31379;DHT22;61664;48.112;11.662;2022-10-19T00:38:50;18.30;74.00
31379;DHT22;61664;48.112;11.662;2022-10-19T00:41:19;18.40;74.00
31379;DHT22;61664;48.112;11.662;2022-10-19T00:46:17;18.40;73.80
31379;DHT22;61664;48.112;11.662;2022-10-19T00:48:44;18.40;73.70
31379;DHT22;61664;48.112;11.662;2022-10-19T00:51:11;18.40;73.60
31379;DHT22;61664;48.112;11.662;2022-10-19T00:53:40;18.40;73.50
31379;DHT22;61664;48.112;11.662;2022-10-19T00:56:11;18.40;73.50
31379;DHT22;61664;48.112;11.662;2022-10-19T00:58:40;18.30;73.40
31379;DHT22;61664;48.112;11.662;2022-10-19T01:01:12;18.30;73.30
31379;DHT22;61664;48.112;11.662;2022-10-19T01:03:43;18.30;73.30
31379;DHT22;61664;48.112;11.662;2022-10-19T01:06:13;18.30;73.20
31379;DHT22;61664;48.112;11.662;2022-10-19T01:08:41;18.30;73.30
31379;DHT22;61664;48.112;11.662;2022-10-19T01:28:57;18.10;73.40
31379;DHT22;61664;48.112;11.662;2022-10-19T01:34:21;18.00;73.50
31379;DHT22;61664;48.112;11.662;2022-10-19T01:37:25;18.00;73.60
31379;DHT22;61664;48.112;11.662;2022-10-19T01:40:03;18.00;73.50
31379;DHT22;61664;48.112;11.662;2022-10-19T01:42:48;18.00;73.70
31379;DHT22;61664;48.112;11.662;2022-10-19T01:45:30;18.00;73.70
31379;DHT22;61664;48.112;11.662;2022-10-19T01:48:27;18.00;73.70
31379;DHT22;61664;48.112;11.662;2022-10-19T01:51:05;18.00;73.50
31379;DHT22;61664;48.112;11.662;2022-10-19T01:53:42;18.00;73.70
31379;DHT22;61664;48.112;11.662;2022-10-19T01:56:17;18.00;73.80
31379;DHT22;61664;48.112;11.662;2022-10-19T01:58:48;18.00;73.90
31379;DHT22;61664;48.112;11.662;2022-10-19T02:01:18;18.00;73.90
31379;DHT22;61664;48.112;11.662;2022-10-19T02:03:50;18.00;74.00
31379;DHT22;61664;48.112;11.662;2022-10-19T02:06:19;18.00;74.00
31379;DHT22;61664;48.112;11.662;2022-10-19T02:08:49;17.90;74.00
31379;DHT22;61664;48.112;11.662;2022-10-19T02:11:18;18.00;74.20
31379;DHT22;61664;48.112;11.662;2022-10-19T02:14:04;18.00;73.70
31379;DHT22;61664;48.112;11.662;2022-10-19T02:16:43;18.00;74.00
31379;DHT22;61664;48.112;11.662;2022-10-19T02:19:23;18.00;74.10
31379;DHT22;61664;48.112;11.662;2022-10-19T02:21:55;18.00;74.20
31379;DHT22;61664;48.112;11.662;2022-10-19T02:24:23;18.00;74.20
31379;DHT22;61664;48.112;11.662;2022-10-19T02:26:51;18.00;74.30
31379;DHT22;61664;48.112;11.662;2022-10-19T02:29:19;18.10;74.40
31379;DHT22;61664;48.112;11.662;2022-10-19T02:31:49;18.10;74.50
31379;DHT22;61664;48.112;11.662;2022-10-19T02:34:16;18.10;74.60
31379;DHT22;61664;48.112;11.662;2022-10-19T02:36:43;18.10;74.60
31379;DHT22;61664;48.112;11.662;2022-10-19T02:39:10;18.10;74.60
31379;DHT22;61664;48.112;11.662;2022-10-19T02:44:55;18.20;74.70
31379;DHT22;61664;48.112;11.662;2022-10-19T02:47:42;18.20;74.60
31379;DHT22;61664;48.112;11.662;2022-10-19T02:50:15;18.20;74.60
31379;DHT22;61664;48.112;11.662;2022-10-19T02:52:44;18.20;74.60
31379;DHT22;61664;48.112;11.662;2022-10-19T02:55:11;18.30;74.60
31379;DHT22;61664;48.112;11.662;2022-10-19T02:57:38;18.30;74.60
31379;DHT22;61664;48.112;11.662;2022-10-19T03:00:06;18.30;74.60
31379;DHT22;61664;48.112;11.662;2022-10-19T03:02:34;18.30;74.60
31379;DHT22;61664;48.112;11.662;2022-10-19T03:05:01;18.30;74.60
31379;DHT22;61664;48.112;11.662;2022-10-19T03:07:29;18.30;74.50
31379;DHT22;61664;48.112;11.662;2022-10-19T03:09:56;18.30;74.50
31379;DHT22;61664;48.112;11.662;2022-10-19T03:12:23;18.30;74.50
31379;DHT22;61664;48.112;11.662;2022-10-19T03:14:50;18.30;74.50
31379;DHT22;61664;48.112;11.662;2022-10-19T03:17:17;18.40;74.50
31379;DHT22;61664;48.112;11.662;2022-10-19T03:19:44;18.30;74.50
31379;DHT22;61664;48.112;11.662;2022-10-19T03:22:12;18.40;74.60
31379;DHT22;61664;48.112;11.662;2022-10-19T03:24:40;18.40;74.60
31379;DHT22;61664;48.112;11.662;2022-10-19T03:27:07;18.40;74.60
31379;DHT22;61664;48.112;11.662;2022-10-19T03:29:34;18.30;74.60
31379;DHT22;61664;48.112;11.662;2022-10-19T03:32:01;18.40;74.60
31379;DHT22;61664;48.112;11.662;2022-10-19T03:34:27;18.40;74.50
31379;DHT22;61664;48.112;11.662;2022-10-19T03:36:54;18.40;74.60
31379;DHT22;61664;48.112;11.662;2022-10-19T03:39:22;18.40;74.50
31379;DHT22;61664;48.112;11.662;2022-10-19T03:41:49;18.40;74.50
31379;DHT22;61664;48.112;11.662;2022-10-19T03:44:16;18.40;74.40
31379;DHT22;61664;48.112;11.662;2022-10-19T03:46:42;18.40;74.40
31379;DHT22;61664;48.112;11.662;2022-10-19T03:49:10;18.40;74.20
31379;DHT22;61664;48.112;11.662;2022-10-19T03:51:37;18.30;74.10
31379;DHT22;61664;48.112;11.662;2022-10-19T03:54:06;18.30;73.90
31379;DHT22;61664;48.112;11.662;2022-10-19T03:56:37;18.30;73.80
31379;DHT22;61664;48.112;11.662;2022-10-19T03:59:05;18.20;73.60
31379;DHT22;61664;48.112;11.662;2022-10-19T04:01:35;18.20;73.40
31379;DHT22;61664;48.112;11.662;2022-10-19T04:04:06;18.10;73.30
31379;DHT22;61664;48.112;11.662;2022-10-19T04:06:41;18.00;73.20
31379;DHT22;61664;48.112;11.662;2022-10-19T04:09:12;18.00;73.30
31379;DHT22;61664;48.112;11.662;2022-10-19T04:11:42;17.90;73.50
31379;DHT22;61664;48.112;11.662;2022-10-19T04:14:11;17.80;73.40
31379;DHT22;61664;48.112;11.662;2022-10-19T04:16:52;17.80;73.50
31379;DHT22;61664;48.112;11.662;2022-10-19T04:19:19;17.70;73.50
31379;DHT22;61664;48.112;11.662;2022-10-19T04:21:48;17.60;73.60
31379;DHT22;61664;48.112;11.662;2022-10-19T04:24:17;17.60;73.80
31379;DHT22;61664;48.112;11.662;2022-10-19T04:26:54;17.50;74.00
31379;DHT22;61664;48.112;11.662;2022-10-19T04:29:23;17.50;74.30
31379;DHT22;61664;48.112;11.662;2022-10-19T04:31:56;17.50;74.50
31379;DHT22;61664;48.112;11.662;2022-10-19T04:34:23;17.40;74.80
31379;DHT22;61664;48.112;11.662;2022-10-19T04:36:50;17.50;74.90
31379;DHT22;61664;48.112;11.662;2022-10-19T04:39:18;17.40;75.00
31379;DHT22;61664;48.112;11.662;2022-10-19T04:41:45;17.40;75.10
31379;DHT22;61664;48.112;11.662;2022-10-19T04:44:12;17.40;75.20
31379;DHT22;61664;48.112;11.662;2022-10-19T04:46:39;17.40;75.20
31379;DHT22;61664;48.112;11.662;2022-10-19T04:49:06;17.50;75.40
31379;DHT22;61664;48.112;11.662;2022-10-19T04:51:33;17.50;75.40
31379;DHT22;61664;48.112;11.662;2022-10-19T04:54:02;17.50;75.50
31379;DHT22;61664;48.112;11.662;2022-10-19T04:56:29;17.50;75.50
31379;DHT22;61664;48.112;11.662;2022-10-19T04:58:58;17.50;75.40
31379;DHT22;61664;48.112;11.662;2022-10-19T05:01:27;17.60;75.50
31379;DHT22;61664;48.112;11.662;2022-10-19T05:03:58;17.60;75.50
31379;DHT22;61664;48.112;11.662;2022-10-19T05:06:26;17.60;75.50
31379;DHT22;61664;48.112;11.662;2022-10-19T05:08:54;17.70;75.20
31379;DHT22;61664;48.112;11.662;2022-10-19T05:11:22;17.60;75.10
31379;DHT22;61664;48.112;11.662;2022-10-19T05:13:49;17.60;75.20
31379;DHT22;61664;48.112;11.662;2022-10-19T05:16:18;17.60;75.30
31379;DHT22;61664;48.112;11.662;2022-10-19T05:18:53;17.70;75.40
31379;DHT22;61664;48.112;11.662;2022-10-19T05:21:22;17.60;75.50
31379;DHT22;61664;48.112;11.662;2022-10-19T05:23:53;17.70;75.60
31379;DHT22;61664;48.112;11.662;2022-10-19T05:26:22;17.70;75.60
31379;DHT22;61664;48.112;11.662;2022-10-19T05:28:53;17.70;75.60
31379;DHT22;61664;48.112;11.662;2022-10-19T05:31:25;17.70;75.70
31379;DHT22;61664;48.112;11.662;2022-10-19T05:33:53;17.70;75.70
31379;DHT22;61664;48.112;11.662;2022-10-19T05:36:29;17.80;75.30
31379;DHT22;61664;48.112;11.662;2022-10-19T05:39:15;17.70;75.50
31379;DHT22;61664;48.112;11.662;2022-10-19T05:41:44;17.70;75.50
31379;DHT22;61664;48.112;11.662;2022-10-19T05:44:20;17.70;75.60
31379;DHT22;61664;48.112;11.662;2022-10-19T05:46:49;17.80;75.70
31379;DHT22;61664;48.112;11.662;2022-10-19T05:49:19;17.80;75.70
31379;DHT22;61664;48.112;11.662;2022-10-19T05:51:48;17.80;75.80
31379;DHT22;61664;48.112;11.662;2022-10-19T05:54:15;17.80;75.80
31379;DHT22;61664;48.112;11.662;2022-10-19T05:56:43;17.90;75.90
31379;DHT22;61664;48.112;11.662;2022-10-19T05:59:15;17.90;76.40
31379;DHT22;61664;48.112;11.662;2022-10-19T06:01:45;17.90;75.90
31379;DHT22;61664;48.112;11.662;2022-10-19T06:04:13;17.90;76.00
31379;DHT22;61664;48.112;11.662;2022-10-19T06:06:41;18.00;76.10
31379;DHT22;61664;48.112;11.662;2022-10-19T06:09:09;18.00;76.10
31379;DHT22;61664;48.112;11.662;2022-10-19T06:11:38;18.00;76.10
31379;DHT22;61664;48.112;11.662;2022-10-19T06:14:11;18.10;76.20
31379;DHT22;61664;48.112;11.662;2022-10-19T06:16:39;18.10;76.10
31379;DHT22;61664;48.112;11.662;2022-10-19T06:19:06;18.10;76.10
31379;DHT22;61664;48.112;11.662;2022-10-19T06:21:33;18.20;76.10
31379;DHT22;61664;48.112;11.662;2022-10-19T06:24:03;18.20;76.00
31379;DHT22;61664;48.112;11.662;2022-10-19T06:26:33;18.20;75.90
31379;DHT22;61664;48.112;11.662;2022-10-19T06:29:01;18.30;75.90
31379;DHT22;61664;48.112;11.662;2022-10-19T06:31:34;18.30;75.80
31379;DHT22;61664;48.112;11.662;2022-10-19T06:34:02;18.40;75.70
31379;DHT22;61664;48.112;11.662;2022-10-19T06:36:30;18.40;75.80
31379;DHT22;61664;48.112;11.662;2022-10-19T06:38:58;18.40;75.70
31379;DHT22;61664;48.112;11.662;2022-10-19T06:41:28;18.40;75.80
31379;DHT22;61664;48.112;11.662;2022-10-19T06:43:56;18.50;75.90
31379;DHT22;61664;48.112;11.662;2022-10-19T06:46:24;18.50;75.80
31379;DHT22;61664;48.112;11.662;2022-10-19T06:48:55;18.50;75.80
31379;DHT22;61664;48.112;11.662;2022-10-19T06:51:23;18.60;75.70
31379;DHT22;61664;48.112;11.662;2022-10-19T06:53:52;18.60;75.10
31379;DHT22;61664;48.112;11.662;2022-10-19T06:56:24;18.60;75.60
31379;DHT22;61664;48.112;11.662;2022-10-19T06:58:52;18.60;75.50
31379;DHT22;61664;48.112;11.662;2022-10-19T07:01:20;18.70;75.50
31379;DHT22;61664;48.112;11.662;2022-10-19T07:03:52;18.70;75.40
31379;DHT22;61664;48.112;11.662;2022-10-19T07:06:20;18.70;75.30
31379;DHT22;61664;48.112;11.662;2022-10-19T07:08:47;18.70;75.20
31379;DHT22;61664;48.112;11.662;2022-10-19T07:11:17;18.70;75.20
31379;DHT22;61664;48.112;11.662;2022-10-19T07:13:45;18.80;75.30
31379;DHT22;61664;48.112;11.662;2022-10-19T07:16:14;18.80;75.10
31379;DHT22;61664;48.112;11.662;2022-10-19T07:18:48;18.80;75.00
31379;DHT22;61664;48.112;11.662;2022-10-19T07:21:18;18.80;75.00
31379;DHT22;61664;48.112;11.662;2022-10-19T07:23:46;18.80;75.00
31379;DHT22;61664;48.112;11.662;2022-10-19T07:26:20;18.80;75.20
31379;DHT22;61664;48.112;11.662;2022-10-19T07:28:49;18.80;74.90
31379;DHT22;61664;48.112;11.662;2022-10-19T07:31:18;18.80;75.20
31379;DHT22;61664;48.112;11.662;2022-10-19T07:33:55;18.80;75.20
31379;DHT22;61664;48.112;11.662;2022-10-19T07:36:25;18.90;74.80
31379;DHT22;61664;48.112;11.662;2022-10-19T07:38:54;18.90;75.10
31379;DHT22;61664;48.112;11.662;2022-10-19T07:41:22;19.00;75.10
31379;DHT22;61664;48.112;11.662;2022-10-19T07:43:51;19.00;75.10
31379;DHT22;61664;48.112;11.662;2022-10-19T07:46:24;19.00;75.10
31379;DHT22;61664;48.112;11.662;2022-10-19T07:48:54;19.00;74.60
31379;DHT22;61664;48.112;11.662;2022-10-19T07:51:21;19.10;74.80
31379;DHT22;61664;48.112;11.662;2022-10-19T07:53:49;19.10;74.80
31379;DHT22;61664;48.112;11.662;2022-10-19T07:56:18;19.10;74.70
31379;DHT22;61664;48.112;11.662;2022-10-19T07:58:50;19.20;74.50
31379;DHT22;61664;48.112;11.662;2022-10-19T08:01:21;19.20;74.30
31379;DHT22;61664;48.112;11.662;2022-10-19T08:03:52;19.20;74.10
31379;DHT22;61664;48.112;11.662;2022-10-19T08:06:39;19.20;74.00
31379;DHT22;61664;48.112;11.662;2022-10-19T08:09:06;19.30;74.10
31379;DHT22;61664;48.112;11.662;2022-10-19T08:11:34;19.20;74.00
31379;DHT22;61664;48.112;11.662;2022-10-19T08:14:02;19.20;74.00
31379;DHT22;61664;48.112;11.662;2022-10-19T08:16:35;19.30;74.20
31379;DHT22;61664;48.112;11.662;2022-10-19T08:19:08;19.30;74.00
31379;DHT22;61664;48.112;11.662;2022-10-19T08:21:42;19.40;74.40
31379;DHT22;61664;48.112;11.662;2022-10-19T08:24:13;19.40;74.20
31379;DHT22;61664;48.112;11.662;2022-10-19T08:26:41;19.50;74.40
31379;DHT22;61664;48.112;11.662;2022-10-19T08:29:19;19.50;74.50
31379;DHT22;61664;48.112;11.662;2022-10-19T08:31:47;19.60;73.80
31379;DHT22;61664;48.112;11.662;2022-10-19T08:34:15;19.60;74.30
31379;DHT22;61664;48.112;11.662;2022-10-19T08:36:42;19.70;74.30
31379;DHT22;61664;48.112;11.662;2022-10-19T08:39:10;19.80;74.40
31379;DHT22;61664;48.112;11.662;2022-10-19T09:12:06;20.30;72.00
31379;DHT22;61664;48.112;11.662;2022-10-19T09:15:00;20.30;71.20
31379;DHT22;61664;48.112;11.662;2022-10-19T09:17:32;20.30;70.20
31379;DHT22;61664;48.112;11.662;2022-10-19T09:20:13;20.30;71.30
31379;DHT22;61664;48.112;11.662;2022-10-19T09:23:14;20.20;70.10
31379;DHT22;61664;48.112;11.662;2022-10-19T09:25:41;20.30;71.10
31379;DHT22;61664;48.112;11.662;2022-10-19T09:31:32;20.20;70.20
31379;DHT22;61664;48.112;11.662;2022-10-19T09:36:53;20.20;70.70
31379;DHT22;61664;48.112;11.662;2022-10-19T09:39:24;20.20;70.80
31379;DHT22;61664;48.112;11.662;2022-10-19T09:44:24;20.30;71.20
31379;DHT22;61664;48.112;11.662;2022-10-19T09:50:20;20.30;69.50
31379;DHT22;61664;48.112;11.662;2022-10-19T09:52:51;20.30;69.30
31379;DHT22;61664;48.112;11.662;2022-10-19T09:55:25;20.30;70.50
31379;DHT22;61664;48.112;11.662;2022-10-19T10:00:38;20.20;69.50
31379;DHT22;61664;48.112;11.662;2022-10-19T10:05:48;20.20;69.10
31379;DHT22;61664;48.112;11.662;2022-10-19T10:08:20;20.20;70.20
31379;DHT22;61664;48.112;11.662;2022-10-19T10:13:47;20.10;69.20
31379;DHT22;61664;48.112;11.662;2022-10-19T10:16:35;20.10;69.30
31379;DHT22;61664;48.112;11.662;2022-10-19T10:19:05;20.10;70.40
31379;DHT22;61664;48.112;11.662;2022-10-19T10:21:51;20.10;70.10
31379;DHT22;61664;48.112;11.662;2022-10-19T10:24:26;20.10;69.30
31379;DHT22;61664;48.112;11.662;2022-10-19T10:27:01;20.00;70.20
31379;DHT22;61664;48.112;11.662;2022-10-19T10:29:35;20.00;70.10
31379;DHT22;61664;48.112;11.662;2022-10-19T10:32:15;20.10;69.90
31379;DHT22;61664;48.112;11.662;2022-10-19T10:34:45;20.10;69.50
31379;DHT22;61664;48.112;11.662;2022-10-19T10:37:44;20.10;70.30
31379;DHT22;61664;48.112;11.662;2022-10-19T10:40:27;20.10;69.50
31379;DHT22;61664;48.112;11.662;2022-10-19T10:43:08;20.10;68.90
31379;DHT22;61664;48.112;11.662;2022-10-19T10:45:44;20.10;68.80
31379;DHT22;61664;48.112;11.662;2022-10-19T10:50:50;20.10;69.50
31379;DHT22;61664;48.112;11.662;2022-10-19T10:53:37;20.10;69.80
31379;DHT22;61664;48.112;11.662;2022-10-19T10:56:21;20.10;68.80
31379;DHT22;61664;48.112;11.662;2022-10-19T10:59:01;20.10;68.30
31379;DHT22;61664;48.112;11.662;2022-10-19T11:01:41;20.10;68.80
31379;DHT22;61664;48.112;11.662;2022-10-19T11:04:22;20.10;69.30
31379;DHT22;61664;48.112;11.662;2022-10-19T11:07:00;20.10;69.20
31379;DHT22;61664;48.112;11.662;2022-10-19T11:09:50;20.10;69.30
31379;DHT22;61664;48.112;11.662;2022-10-19T11:12:45;20.20;69.00
31379;DHT22;61664;48.112;11.662;2022-10-19T11:15:27;20.20;68.30
31379;DHT22;61664;48.112;11.662;2022-10-19T11:18:21;20.30;68.40
31379;DHT22;61664;48.112;11.662;2022-10-19T11:21:10;20.30;67.70
31379;DHT22;61664;48.112;11.662;2022-10-19T11:27:32;20.40;68.10
31379;DHT22;61664;48.112;11.662;2022-10-19T11:30:12;20.40;68.60
31379;DHT22;61664;48.112;11.662;2022-10-19T11:35:54;20.60;67.50
31379;DHT22;61664;48.112;11.662;2022-10-19T11:38:34;20.70;68.90
31379;DHT22;61664;48.112;11.662;2022-10-19T11:49:50;21.10;66.30
31379;DHT22;61664;48.112;11.662;2022-10-19T11:55:55;21.30;65.90
31379;DHT22;61664;48.112;11.662;2022-10-19T12:10:31;21.70;66.00
31379;DHT22;61664;48.112;11.662;2022-10-19T12:13:12;21.80;64.00
31379;DHT22;61664;48.112;11.662;2022-10-19T12:15:47;21.80;65.30
31379;DHT22;61664;48.112;11.662;2022-10-19T12:21:07;21.90;63.60
31379;DHT22;61664;48.112;11.662;2022-10-19T12:23:39;21.90;64.30
31379;DHT22;61664;48.112;11.662;2022-10-19T12:26:16;21.90;64.40
31379;DHT22;61664;48.112;11.662;2022-10-19T12:29:00;21.90;63.70
31379;DHT22;61664;48.112;11.662;2022-10-19T12:31:31;21.80;63.00
31379;DHT22;61664;48.112;11.662;2022-10-19T12:39:48;21.60;62.70
31379;DHT22;61664;48.112;11.662;2022-10-19T12:48:17;21.40;63.40
31379;DHT22;61664;48.112;11.662;2022-10-19T12:56:22;21.20;63.20
31379;DHT22;61664;48.112;11.662;2022-10-19T12:58:57;21.20;62.90
31379;DHT22;61664;48.112;11.662;2022-10-19T13:07:04;21.10;64.00
31379;DHT22;61664;48.112;11.662;2022-10-19T13:09:40;21.10;65.30
31379;DHT22;61664;48.112;11.662;2022-10-19T13:22:47;21.60;64.20
31379;DHT22;61664;48.112;11.662;2022-10-19T13:25:39;21.80;65.70
31379;DHT22;61664;48.112;11.662;2022-10-19T13:30:57;22.20;63.00
31379;DHT22;61664;48.112;11.662;2022-10-19T13:33:44;22.30;64.70
31379;DHT22;61664;48.112;11.662;2022-10-19T13:36:12;22.40;62.00
31379;DHT22;61664;48.112;11.662;2022-10-19T13:42:10;22.50;61.70
31379;DHT22;61664;48.112;11.662;2022-10-19T13:44:19;22.50;61.90
31379;DHT22;61664;48.112;11.662;2022-10-19T13:49:39;22.40;60.60
31379;DHT22;61664;48.112;11.662;2022-10-19T13:55:22;22.30;61.60
31379;DHT22;61664;48.112;11.662;2022-10-19T14:06:38;22.10;61.50
31379;DHT22;61664;48.112;11.662;2022-10-19T14:09:39;22.00;60.60
31379;DHT22;61664;48.112;11.662;2022-10-19T14:12:26;22.10;60.50
31379;DHT22;61664;48.112;11.662;2022-10-19T14:14:55;22.30;60.90
31379;DHT22;61664;48.112;11.662;2022-10-19T14:17:25;22.40;63.40
31379;DHT22;61664;48.112;11.662;2022-10-19T14:19:57;22.70;62.40
31379;DHT22;61664;48.112;11.662;2022-10-19T14:22:32;22.90;61.50
31379;DHT22;61664;48.112;11.662;2022-10-19T14:25:17;23.00;61.00
31379;DHT22;61664;48.112;11.662;2022-10-19T14:27:48;23.00;58.30
31379;DHT22;61664;48.112;11.662;2022-10-19T14:30:25;23.00;59.90
31379;DHT22;61664;48.112;11.662;2022-10-19T14:32:55;22.90;59.90
31379;DHT22;61664;48.112;11.662;2022-10-19T14:35:30;22.80;59.70
31379;DHT22;61664;48.112;11.662;2022-10-19T14:37:59;22.70;59.30
31379;DHT22;61664;48.112;11.662;2022-10-19T14:40:30;22.60;59.80
31379;DHT22;61664;48.112;11.662;2022-10-19T14:43:00;22.60;59.70
31379;DHT22;61664;48.112;11.662;2022-10-19T14:45:31;22.60;60.40
31379;DHT22;61664;48.112;11.662;2022-10-19T14:48:03;22.60;60.30
31379;DHT22;61664;48.112;11.662;2022-10-19T14:50:45;22.90;60.60
31379;DHT22;61664;48.112;11.662;2022-10-19T14:56:14;24.00;61.20
31379;DHT22;61664;48.112;11.662;2022-10-19T14:58:53;24.90;64.70
31379;DHT22;61664;48.112;11.662;2022-10-19T15:01:23;25.70;60.50
31379;DHT22;61664;48.112;11.662;2022-10-19T15:03:50;26.50;63.20
31379;DHT22;61664;48.112;11.662;2022-10-19T15:06:22;27.30;61.80
31379;DHT22;61664;48.112;11.662;2022-10-19T15:09:06;27.90;58.20
31379;DHT22;61664;48.112;11.662;2022-10-19T15:11:50;28.40;54.90
31379;DHT22;61664;48.112;11.662;2022-10-19T15:14:26;28.50;55.00
31379;DHT22;61664;48.112;11.662;2022-10-19T15:17:03;28.40;51.70
31379;DHT22;61664;48.112;11.662;2022-10-19T15:19:46;28.10;50.60
31379;DHT22;61664;48.112;11.662;2022-10-19T15:22:15;27.70;52.00
31379;DHT22;61664;48.112;11.662;2022-10-19T15:27:42;26.70;51.30
31379;DHT22;61664;48.112;11.662;2022-10-19T15:35:29;25.20;50.90
31379;DHT22;61664;48.112;11.662;2022-10-19T15:40:46;24.40;52.10
31379;DHT22;61664;48.112;11.662;2022-10-19T15:43:36;24.00;53.60
31379;DHT22;61664;48.112;11.662;2022-10-19T15:46:26;23.60;52.90
31379;DHT22;61664;48.112;11.662;2022-10-19T15:51:46;22.90;54.60
31379;DHT22;61664;48.112;11.662;2022-10-19T15:54:15;22.70;55.10
31379;DHT22;61664;48.112;11.662;2022-10-19T15:56:45;22.40;55.40
31379;DHT22;61664;48.112;11.662;2022-10-19T15:59:18;22.20;55.70
31379;DHT22;61664;48.112;11.662;2022-10-19T16:01:47;21.90;55.90
31379;DHT22;61664;48.112;11.662;2022-10-19T16:04:21;21.70;56.30
31379;DHT22;61664;48.112;11.662;2022-10-19T16:06:48;21.40;56.50
31379;DHT22;61664;48.112;11.662;2022-10-19T16:09:17;21.20;56.90
31379;DHT22;61664;48.112;11.662;2022-10-19T16:11:50;21.00;57.10
31379;DHT22;61664;48.112;11.662;2022-10-19T16:14:26;20.80;57.50
31379;DHT22;61664;48.112;11.662;2022-10-19T16:16:54;20.60;57.90
31379;DHT22;61664;48.112;11.662;2022-10-19T16:19:24;20.40;58.10
31379;DHT22;61664;48.112;11.662;2022-10-19T16:21:51;20.30;58.30
31379;DHT22;61664;48.112;11.662;2022-10-19T16:24:18;20.10;58.50
31379;DHT22;61664;48.112;11.662;2022-10-19T16:26:45;20.00;58.70
31379;DHT22;61664;48.112;11.662;2022-10-19T16:29:12;19.80;58.90
31379;DHT22;61664;48.112;11.662;2022-10-19T16:31:39;19.70;59.20
31379;DHT22;61664;48.112;11.662;2022-10-19T16:34:06;19.60;59.40
31379;DHT22;61664;48.112;11.662;2022-10-19T16:36:32;19.40;59.60
31379;DHT22;61664;48.112;11.662;2022-10-19T16:38:59;19.30;59.80
31379;DHT22;61664;48.112;11.662;2022-10-19T16:41:26;19.20;60.00
31379;DHT22;61664;48.112;11.662;2022-10-19T16:43:54;19.10;60.20
31379;DHT22;61664;48.112;11.662;2022-10-19T16:46:25;19.00;60.40
31379;DHT22;61664;48.112;11.662;2022-10-19T16:48:53;18.90;60.70
31379;DHT22;61664;48.112;11.662;2022-10-19T16:51:33;18.80;60.90
31379;DHT22;61664;48.112;11.662;2022-10-19T16:54:05;18.70;61.20
31379;DHT22;61664;48.112;11.662;2022-10-19T16:56:35;18.60;61.30
31379;DHT22;61664;48.112;11.662;2022-10-19T16:59:04;18.50;61.40
31379;DHT22;61664;48.112;11.662;2022-10-19T17:01:33;18.40;61.70
31379;DHT22;61664;48.112;11.662;2022-10-19T17:04:00;18.30;62.00
31379;DHT22;61664;48.112;11.662;2022-10-19T17:06:28;18.30;62.20
31379;DHT22;61664;48.112;11.662;2022-10-19T17:08:56;18.20;62.50
31379;DHT22;61664;48.112;11.662;2022-10-19T17:11:43;18.30;62.80
31379;DHT22;61664;48.112;11.662;2022-10-19T17:14:11;18.20;62.90
31379;DHT22;61664;48.112;11.662;2022-10-19T17:16:39;18.10;63.10
31379;DHT22;61664;48.112;11.662;2022-10-19T17:19:07;18.10;63.30
31379;DHT22;61664;48.112;11.662;2022-10-19T17:21:36;18.10;63.40
31379;DHT22;61664;48.112;11.662;2022-10-19T17:24:05;18.10;63.50
31379;DHT22;61664;48.112;11.662;2022-10-19T17:26:36;18.10;63.50
31379;DHT22;61664;48.112;11.662;2022-10-19T17:29:05;18.10;63.60
31379;DHT22;61664;48.112;11.662;2022-10-19T17:31:33;18.10;63.60
31379;DHT22;61664;48.112;11.662;2022-10-19T17:34:01;18.10;63.60
31379;DHT22;61664;48.112;11.662;2022-10-19T17:36:31;18.10;63.70
31379;DHT22;61664;48.112;11.662;2022-10-19T17:39:06;18.00;63.60
31379;DHT22;61664;48.112;11.662;2022-10-19T17:41:35;18.10;63.20
31379;DHT22;61664;48.112;11.662;2022-10-19T17:44:03;18.10;63.50
31379;DHT22;61664;48.112;11.662;2022-10-19T17:46:32;18.00;63.70
31379;DHT22;61664;48.112;11.662;2022-10-19T17:49:00;18.00;63.70
31379;DHT22;61664;48.112;11.662;2022-10-19T17:51:29;18.00;63.70
31379;DHT22;61664;48.112;11.662;2022-10-19T17:54:00;17.90;63.50
31379;DHT22;61664;48.112;11.662;2022-10-19T17:56:33;17.90;63.50
31379;DHT22;61664;48.112;11.662;2022-10-19T17:59:02;17.90;63.40
31379;DHT22;61664;48.112;11.662;2022-10-19T18:01:30;17.80;63.40
31379;DHT22;61664;48.112;11.662;2022-10-19T18:03:57;17.80;63.40
31379;DHT22;61664;48.112;11.662;2022-10-19T18:06:26;17.70;63.50
31379;DHT22;61664;48.112;11.662;2022-10-19T18:08:57;17.70;63.60
31379;DHT22;61664;48.112;11.662;2022-10-19T18:11:31;17.60;63.50
31379;DHT22;61664;48.112;11.662;2022-10-19T18:14:03;17.60;63.50
31379;DHT22;61664;48.112;11.662;2022-10-19T18:16:40;17.50;63.50
31379;DHT22;61664;48.112;11.662;2022-10-19T18:19:14;17.50;63.50
31379;DHT22;61664;48.112;11.662;2022-10-19T18:21:44;17.40;63.60
31379;DHT22;61664;48.112;11.662;2022-10-19T18:24:15;17.40;63.70
31379;DHT22;61664;48.112;11.662;2022-10-19T18:26:48;17.30;63.70
31379;DHT22;61664;48.112;11.662;2022-10-19T18:29:17;17.30;63.70
31379;DHT22;61664;48.112;11.662;2022-10-19T18:31:46;17.30;63.60
31379;DHT22;61664;48.112;11.662;2022-10-19T18:34:23;17.20;63.60
31379;DHT22;61664;48.112;11.662;2022-10-19T18:36:52;17.10;64.30
31379;DHT22;61664;48.112;11.662;2022-10-19T18:39:20;17.10;63.70
31379;DHT22;61664;48.112;11.662;2022-10-19T18:41:53;17.10;63.90
31379;DHT22;61664;48.112;11.662;2022-10-19T18:44:21;17.00;64.10
31379;DHT22;61664;48.112;11.662;2022-10-19T18:46:52;17.00;64.00
31379;DHT22;61664;48.112;11.662;2022-10-19T18:49:19;16.90;64.10
31379;DHT22;61664;48.112;11.662;2022-10-19T18:51:48;16.80;64.10
31379;DHT22;61664;48.112;11.662;2022-10-19T18:54:21;16.80;64.30